Latest Weather Observations for Essendon Airport

IDV60901

Issued at 4:01 pm EDT Tuesday 24 January 2017 (issued every 10 minutes, with the page automatically refreshed every 10 minutes)

About weather observations | Map of Melbourne area stations | Latest observations for Melbourne area | Other Formats
Station Details ID: 086038 Name: ESSENDON AIRPORT Lat: -37.73 Lon: 144.91 Height: 78.4 m
Data from the previous 72 hours. | See also: Recent months at Essendon Airport
Date/Time
EDT
Temp
°C
App
Temp
°C
Dew
Point
°C
Rel
Hum
%
Delta-T
°C
Wind Press
QNH
hPa
Press
MSL
hPa
Rain since
9am
mm
Dir  Spd
km/h
Gust
km/h
Spd
kts
Gust
kts
24/04:00pm 21.3 14.8 8.2 43 6.9 SSE 32 41 17 22 1016.4 1016.1 0.0
24/03:30pm 21.1 15.4 8.4 44 6.7 SSE 28 41 15 22 1016.5 1016.2 0.0
24/03:00pm 21.1 14.8 9.0 46 6.4 SSE 32 44 17 24 1016.1 1015.8 0.0
24/02:30pm 21.2 15.1 9.8 48 6.2 SSE 32 44 17 24 1015.9 1015.6 0.0
24/02:00pm 21.0 14.8 9.9 49 6.0 SSE 33 46 18 25 1015.5 1015.2 0.0
24/01:30pm 21.9 15.9 10.1 47 6.4 S 32 43 17 23 1015.0 1014.8 0.0
24/01:00pm 21.4 16.1 9.9 48 6.2 S 28 39 15 21 1014.6 1014.4 0.0
24/12:30pm 22.2 16.6 5.6 34 8.3 SSW 24 39 13 21 1014.6 1014.4 0.0
24/12:00pm 21.6 16.3 6.7 38 7.6 WSW 24 32 13 17 1014.7 1014.5 0.0
24/11:30am 22.8 18.2 9.6 43 7.2 SSW 24 43 13 23 1014.4 1014.2 0.0
24/11:00am 22.4 17.9 10.2 46 6.7 SW 24 32 13 17 1014.2 1014.0 0.0
24/10:30am 20.6 15.8 10.4 52 5.6 SW 26 35 14 19 1014.0 1013.8 0.0
24/10:00am 20.5 15.4 10.6 53 5.4 SW 28 39 15 21 1013.5 1013.3 0.0
24/09:30am 20.1 14.3 10.8 55 5.1 WSW 32 41 17 22 1013.2 1013.0 0.0
24/09:00am 18.6 12.9 11.9 65 3.7 WSW 33 44 18 24 1012.8 1012.6 0.4
24/08:30am 18.5 15.1 13.8 74 2.7 SW 24 33 13 18 1012.0 1011.8 0.2
24/08:00am 18.8 16.4 14.5 76 2.5 WSW 20 28 11 15 1011.2 1011.0 0.2
24/07:30am 18.7 15.0 13.8 73 2.8 WSW 26 37 14 20 1010.4 1010.2 0.2
24/07:00am 18.9 13.4 13.7 72 3.0 WSW 35 48 19 26 1009.6 1009.4 0.2
24/06:30am 19.4 12.0 14.2 72 3.0 WSW 46 61 25 33 1008.7 1008.5 0.2
24/06:19am 19.7 15.7 16.2 80 2.1 WSW 32 50 17 27 1008.3 1008.1 0.2
24/06:00am 19.9 16.9 16.9 83 1.8 WSW 28 37 15 20 1007.7 1007.5 0.2
24/05:40am 20.0 17.2 17.2 84 1.7 WSW 28 35 15 19 1007.0 1006.7 0.2
24/05:32am 20.0 16.5 17.4 85 1.6 WSW 32 50 17 27 1006.9 1006.6 0.2
24/05:30am 20.0 16.3 17.4 85 1.6 WSW 33 50 18 27 1006.8 1006.5 0.2
24/05:18am 20.5 16.6 17.9 85 1.6 WSW 35 54 19 29 1006.4 1006.1 0.2
24/05:17am 20.5 16.6 17.9 85 1.6 WSW 35 54 19 29 1006.4 1006.1 0.2
24/05:00am 20.8 17.2 18.6 87 1.4 WSW 35 50 19 27 1005.8 1005.5 0.2
24/04:43am 20.8 17.6 19.5 92 0.8 WSW 35 54 19 29 1005.6 1005.3 0.2
24/04:30am 21.0 17.2 19.7 92 0.8 WSW 39 50 21 27 1005.2 1004.9 0.2
24/04:22am 21.6 16.9 19.5 88 1.3 WSW 43 63 23 34 1005.1 1004.8 0.2
24/04:14am 24.1 22.3 18.7 72 3.4 WSW 26 52 14 28 1004.8 1004.5 0.2
24/04:00am 24.6 23.8 18.5 69 3.9 W 20 30 11 16 1004.1 1003.8 0.2
24/03:30am 24.6 23.3 18.1 67 4.1 W 22 32 12 17 1003.7 1003.4 0.2
24/03:00am 24.7 24.2 16.9 62 4.8 WNW 15 17 8 9 1003.5 1003.2 0.2
24/02:30am 25.1 24.2 16.8 60 5.1 NW 17 22 9 12 1003.1 1002.8 0.2
24/02:00am 23.8 23.0 17.1 66 4.2 N 17 20 9 11 1003.0 1002.7 0.2
24/01:30am 22.8 23.0 17.7 73 3.2 N 13 17 7 9 1003.3 1003.0 0.2
24/01:00am 22.3 22.2 17.9 76 2.8 NNE 15 20 8 11 1003.4 1003.1 0.2
24/12:30am 21.7 22.1 18.1 80 2.2 NNE 13 17 7 9 1003.9 1003.6 0.2
24/12:00am 21.9 23.4 18.1 79 2.4 ENE 7 11 4 6 1004.0 1003.7 0.2
 
Date/Time
EDT
Temp
°C
App
Temp
°C
Dew
Point
°C
Rel
Hum
%
Delta-T
°C
Wind Press
QNH
hPa
Press
MSL
hPa
Rain since
9am
mm
Dir  Spd
km/h
Gust
km/h
Spd
kts
Gust
kts
23/11:30pm 22.1 24.4 17.7 76 2.7 NNE 2 6 1 3 1004.7 1004.4 0.2
23/11:00pm 22.0 22.9 17.6 76 2.7 NNE 9 19 5 10 1004.6 1004.3 0.2
23/10:30pm 21.4 23.0 18.2 82 2.0 NE 7 17 4 9 1004.7 1004.4 0.2
23/10:00pm 21.4 23.0 17.8 80 2.2 S 6 9 3 5 1004.7 1004.4 0.2
23/09:30pm 21.4 22.0 17.6 79 2.4 SSW 11 22 6 12 1005.7 1005.4 0.2
23/09:00pm 22.2 19.3 17.1 73 3.1 WSW 28 39 15 21 1005.7 1005.4 0.0
23/08:30pm 23.3 20.2 16.6 66 4.1 WSW 28 39 15 21 1004.4 1004.1 0.0
23/08:01pm 25.3 20.2 14.7 51 6.4 SW 35 59 19 32 1004.1 1003.8 0.0
23/08:00pm 25.5 20.7 14.6 51 6.6 SW 33 46 18 25 1004.1 1003.8 0.0
23/07:55pm 26.0 22.0 14.1 47 7.1 SSW 28 41 15 22 1003.9 1003.6 0.0
23/07:30pm 26.7 20.9 13.8 45 7.7 S 37 46 20 25 1002.8 1002.5 0.0
23/07:06pm 30.4 24.6 10.9 30 11.2 WSW 32 61 17 33 1001.8 1001.6 0.0
23/07:02pm 32.4 29.2 9.9 25 12.9 W 17 56 9 30 1001.6 1001.4 0.0
23/07:00pm 34.7 31.9 6.9 18 15.4 WNW 11 24 6 13 1001.2 1001.0 0.0
23/06:30pm 35.5 32.8 5.8 16 16.2 N 9 13 5 7 1000.7 1000.5 0.0
23/06:00pm 36.3 32.3 6.5 16 16.6 N 17 22 9 12 1000.9 1000.7 0.0
23/05:30pm 36.4 31.2 3.6 13 17.3 NNW 20 26 11 14 1001.2 1001.0 0.0
23/05:00pm 38.0 32.3 4.8 13 18.1 NW 24 33 13 18 1001.5 1001.3 0.0
23/04:30pm 36.9 32.0 5.0 14 17.3 NW 20 32 11 17 1001.8 1001.6 0.0
23/04:00pm 36.1 30.5 5.4 15 16.7 NNW 24 32 13 17 1002.3 1002.0 0.0
23/03:30pm 36.4 31.8 6.6 16 16.5 NW 20 30 11 16 1002.7 1002.4 0.0
23/03:00pm 34.7 30.4 5.2 16 15.9 WNW 17 33 9 18 1003.2 1002.9 0.0
23/02:30pm 33.5 27.6 5.9 18 14.9 NW 26 39 14 21 1003.8 1003.5 0.0
23/02:00pm 34.5 29.5 9.7 22 14.3 NNW 26 37 14 20 1004.0 1003.7 0.0
23/01:30pm 34.4 30.7 11.5 25 13.6 NNW 22 35 12 19 1004.2 1003.9 0.0
23/01:00pm 34.4 30.3 11.5 25 13.6 N 24 32 13 17 1004.3 1004.0 0.0
23/12:30pm 33.9 28.8 10.5 24 13.6 NNW 28 39 15 21 1004.5 1004.2 0.0
23/12:00pm 33.4 29.3 11.3 26 13.0 N 24 39 13 21 1004.7 1004.4 0.0
23/11:30am 32.9 28.6 10.9 26 12.8 N 24 37 13 20 1005.0 1004.7 0.0
23/11:00am 32.1 27.4 10.8 27 12.4 N 26 39 14 21 1005.3 1005.0 0.0
23/10:30am 30.8 26.6 11.2 30 11.4 N 24 32 13 17 1005.7 1005.4 0.0
23/10:00am 30.8 28.8 12.7 33 10.8 N 15 20 8 11 1006.1 1005.8 0.0
23/09:30am 28.1 25.1 12.0 36 9.3 N 19 24 10 13 1006.3 1006.0 0.0
23/09:00am 26.7 23.8 12.4 41 8.3 N 19 24 10 13 1006.5 1006.2 0.0
23/08:30am 26.0 23.8 13.2 45 7.5 N 17 24 9 13 1006.4 1006.1 0.0
23/08:00am 21.9 23.4 16.6 72 3.2 E 4 7 2 4 1006.4 1006.1 0.0
23/07:30am 20.9 22.0 16.7 77 2.6 E 6 7 3 4 1006.4 1006.1 0.0
23/07:00am 20.5 21.2 16.1 76 2.7 E 7 9 4 5 1006.7 1006.4 0.0
23/06:30am 20.5 21.2 16.1 76 2.6 NE 7 9 4 5 1006.9 1006.6 0.0
23/06:00am 20.1 20.5 16.3 79 2.3 ENE 9 11 5 6 1006.8 1006.5 0.0
23/05:30am 20.0 20.4 16.4 80 2.2 ENE 9 11 5 6 1006.8 1006.5 0.0
23/05:00am 19.7 20.2 16.5 82 1.9 NE 9 9 5 5 1006.7 1006.4 0.0
23/04:30am 19.8 21.6 16.4 81 2.0 NE 2 7 1 4 1007.1 1006.8 0.0
23/04:00am 19.8 22.0 16.4 81 2.1 CALM 0 0 0 0 1007.1 1006.8 0.0
23/03:30am 19.9 21.0 16.7 82 1.9 NE 6 7 3 4 1007.5 1007.2 0.0
23/03:00am 19.5 21.7 16.5 83 1.8 CALM 0 6 0 3 1007.6 1007.4 0.0
23/02:30am 19.7 20.8 16.5 82 1.9 NE 6 7 3 4 1007.9 1007.7 0.0
23/02:00am 19.9 22.0 16.3 80 2.2 CALM 0 0 0 0 1008.3 1008.1 0.0
23/01:30am 19.9 21.3 16.3 80 2.2 N 4 6 2 3 1008.6 1008.4 0.0
23/01:00am 20.1 21.0 16.5 80 2.2 N 7 9 4 5 1008.9 1008.7 0.0
23/12:30am 20.1 20.6 16.5 80 2.2 W 9 11 5 6 1009.4 1009.2 0.0
23/12:00am 20.8 20.2 16.6 77 2.6 WNW 15 19 8 10 1010.3 1010.1 0.0
 
Date/Time
EDT
Temp
°C
App
Temp
°C
Dew
Point
°C
Rel
Hum
%
Delta-T
°C
Wind Press
QNH
hPa
Press
MSL
hPa
Rain since
9am
mm
Dir  Spd
km/h
Gust
km/h
Spd
kts
Gust
kts
22/11:30pm 21.3 21.9 16.7 75 2.8 WNW 9 13 5 7 1009.9 1009.7 0.0
22/11:00pm 21.5 20.9 16.7 74 2.9 WSW 15 17 8 9 1010.4 1010.2 0.0
22/10:30pm 22.5 22.0 17.0 71 3.4 W 15 19 8 10 1010.7 1010.5 0.0
22/10:00pm 23.4 23.4 15.2 60 4.9 SSE 9 15 5 8 1010.7 1010.5 0.0
22/09:30pm 24.8 24.6 14.6 53 6.1 ESE 9 13 5 7 1010.6 1010.4 0.0
22/09:00pm 25.6 24.4 14.1 49 6.8 ESE 13 19 7 10 1010.4 1010.2 0.0
22/08:30pm 25.2 25.8 15.8 56 5.7 SSW 7 11 4 6 1010.4 1010.2 0.0
22/08:00pm 26.4 26.0 16.1 53 6.3 SSW 13 17 7 9 1010.2 1010.0 0.0
22/07:30pm 27.1 26.7 16.1 51 6.8 SSW 13 17 7 9 1010.0 1009.8 0.0
22/07:00pm 27.2 26.3 15.9 50 7.0 S 15 19 8 10 1010.0 1009.8 0.0
22/06:30pm 26.8 24.2 14.9 48 7.2 S 22 30 12 16 1010.3 1010.1 0.0
22/06:00pm 26.7 23.2 13.4 43 7.9 S 24 32 13 17 1010.6 1010.4 0.0
22/05:30pm 26.7 23.4 14.1 46 7.5 S 24 30 13 16 1010.9 1010.7 0.0
22/05:00pm 27.6 24.8 14.3 44 8.0 S 22 30 12 16 1011.1 1010.9 0.0
22/04:30pm 28.2 24.1 11.3 35 9.7 S 24 30 13 16 1011.3 1011.1 0.0
22/04:00pm 29.6 26.9 12.9 35 9.9 S 19 28 10 15 1011.6 1011.4 0.0
22/03:30pm 29.2 27.3 11.7 34 10.2 SE 13 20 7 11 1012.0 1011.8 0.0
22/03:00pm 28.0 25.5 11.1 35 9.7 SSE 15 26 8 14 1012.4 1012.2 0.0
22/02:30pm 28.0 26.4 11.5 35 9.5 S 11 19 6 10 1012.7 1012.5 0.0
22/02:00pm 27.4 25.9 9.3 32 10.0 WSW 7 11 4 6 1013.0 1012.8 0.0
22/01:30pm 26.7 25.3 9.5 34 9.5 W 7 15 4 8 1013.5 1013.3 0.0
22/01:00pm 25.6 23.9 9.8 37 8.7 NE 9 17 5 9 1013.7 1013.5 0.0
22/12:30pm 25.3 23.4 9.2 36 8.8 SSE 9 15 5 8 1014.1 1013.9 0.0
22/12:00pm 23.8 21.9 9.0 39 8.0 SSE 9 19 5 10 1014.4 1014.2 0.0
22/11:30am 23.0 21.3 9.8 43 7.2 ESE 9 15 5 8 1014.8 1014.6 0.0
22/11:00am 21.5 19.6 9.1 45 6.6 E 9 15 5 8 1015.2 1014.9 0.0
22/10:30am 19.9 18.6 10.0 53 5.3 ENE 7 13 4 7 1015.6 1015.3 0.0
22/10:00am 19.5 18.1 10.8 57 4.7 ESE 9 13 5 7 1016.0 1015.7 0.0
22/09:30am 18.0 16.6 10.9 63 3.8 SSE 9 15 5 8 1016.3 1016.0 0.0
22/09:00am 17.5 16.5 12.2 71 2.9 S 9 11 5 6 1016.6 1016.3 0.0
22/08:30am 16.0 15.4 12.2 78 2.1 SSW 7 9 4 5 1016.8 1016.5 0.0
22/08:00am 15.3 15.0 13.2 87 1.2 WNW 7 9 4 5 1016.5 1016.2 0.0
22/07:30am 14.0 13.5 12.7 92 0.7 NW 7 11 4 6 1016.5 1016.2 0.0
22/07:00am 12.7 12.1 11.6 93 0.6 NW 6 7 3 4 1016.3 1016.0 0.0
22/06:30am 12.7 11.9 11.6 93 0.6 WNW 7 11 4 6 1016.3 1016.0 0.0
22/06:00am 12.4 11.1 11.3 93 0.6 NW 9 11 5 6 1016.3 1016.0 0.0
22/05:30am 12.6 11.4 11.5 93 0.6 WNW 9 9 5 5 1015.9 1015.6 0.0
22/05:00am 12.4 11.4 11.0 91 0.7 NNW 7 9 4 5 1015.7 1015.4 0.0
22/04:30am 13.1 12.2 11.2 88 1.0 WNW 7 9 4 5 1015.6 1015.3 0.0
22/04:00am 13.6 12.8 11.7 88 1.0 W 7 7 4 4 1015.5 1015.2 0.0
22/03:30am 13.5 12.2 11.2 86 1.2 SSW 9 11 5 6 1015.5 1015.2 0.0
22/03:00am 14.0 13.1 11.3 84 1.4 S 7 9 4 5 1015.8 1015.5 0.0
22/02:30am 14.4 13.2 11.6 83 1.5 S 9 11 5 6 1015.9 1015.6 0.0
22/02:00am 14.2 12.9 11.4 83 1.5 SSW 9 11 5 6 1016.1 1015.8 0.0
22/01:30am 14.3 13.3 11.1 81 1.7 S 7 11 4 6 1016.1 1015.8 0.0
22/01:00am 14.9 13.8 10.7 76 2.2 S 7 9 4 5 1016.4 1016.1 0.0
22/12:30am 15.3 13.8 10.7 74 2.4 SSE 9 11 5 6 1016.5 1016.2 0.0
22/12:00am 15.6 14.2 10.8 73 2.6 SSE 9 11 5 6 1016.5 1016.2 0.0
 
Date/Time
EDT
Temp
°C
App
Temp
°C
Dew
Point
°C
Rel
Hum
%
Delta-T
°C
Wind Press
QNH
hPa
Press
MSL
hPa
Rain since
9am
mm
Dir  Spd
km/h
Gust
km/h
Spd
kts
Gust
kts
21/11:30pm 16.1 14.6 10.6 70 2.9 SSE 9 13 5 7 1016.6 1016.3 0.0
21/11:00pm 16.7 14.5 10.8 68 3.2 SSE 13 19 7 10 1016.6 1016.3 0.0
21/10:30pm 16.9 15.1 10.7 67 3.3 SSE 11 17 6 9 1016.6 1016.3 0.0
21/10:00pm 17.6 15.9 12.3 71 2.9 S 13 20 7 11 1016.3 1016.0 0.0
21/09:30pm 17.7 14.8 12.2 70 3.0 S 19 24 10 13 1016.3 1016.0 0.0
21/09:00pm 18.1 15.0 12.1 68 3.3 S 20 26 11 14 1016.2 1015.9 0.0
21/08:30pm 18.4 14.8 11.9 66 3.6 S 22 30 12 16 1016.0 1015.7 0.0
21/08:00pm 19.1 15.8 11.7 62 4.1 S 20 28 11 15 1015.6 1015.3 0.0
21/07:30pm 19.6 15.3 10.6 56 4.9 S 24 32 13 17 1015.4 1015.1 0.0
21/07:00pm 20.3 15.9 10.4 53 5.4 S 24 30 13 16 1015.2 1014.9 0.0
21/06:30pm 21.6 17.9 10.1 48 6.3 S 20 26 11 14 1014.8 1014.6 0.0
21/06:00pm 21.5 17.2 7.7 41 7.2 SSE 20 28 11 15 1014.7 1014.5 0.0
21/05:30pm 22.4 17.8 6.6 36 8.1 SSE 20 28 11 15 1015.0 1014.8 0.0
21/05:00pm 22.4 17.8 6.6 36 8.1 SSE 20 28 11 15 1015.0 1014.8 0.0
21/04:30pm 21.9 18.4 10.1 47 6.4 SSE 19 26 10 14 1015.2 1014.9 0.0

Latest Capital City Observations: Canberra | Sydney | Melbourne | Brisbane | Adelaide | Perth | Hobart | Darwin

Other Formats:

Comma delimited format used in spreadsheet applications
http://www.bom.gov.au/fwo/IDV60901/IDV60901.95866.axf

JavaScript Object Notation format (JSON) in row-major order
http://www.bom.gov.au/fwo/IDV60901/IDV60901.95866.json